Time;durP1;ratioP1;P1;durP2;ratioP2;P2;SDS_P1;SDS_P2;PMS_P1;PMS_P2;Temp;Humidity;BMP_temperature;BMP_pressure;BME280_temperature;BME280_humidity;BME280_pressure;Samples;Min_cycle;Max_cycle;Signal;HPM_P1;HPM_P2
2022/02/19 00:00:50;;;;;;;27.40;15.48;;;230.90;1843.20;;;;;;5052333;28;20021;-60
2022/02/19 00:03:16;;;;;;;31.98;18.20;;;230.90;1843.20;;;;;;5052236;28;20040;-60
2022/02/19 00:05:42;;;;;;;23.90;13.95;;;230.90;1868.80;;;;;;5051558;28;20442;-61
2022/02/19 00:08:08;;;;;;;45.63;25.20;;;230.90;1868.80;;;;;;5052009;28;20083;-61
2022/02/19 00:10:34;;;;;;;58.50;28.70;;;230.90;1843.20;;;;;;5051784;28;20024;-60
2022/02/19 00:13:00;;;;;;;160.70;82.63;;;230.80;1868.80;;;;;;5051861;28;20037;-61
2022/02/19 00:15:26;;;;;;;112.25;56.10;;;230.80;1868.80;;;;;;5050829;28;20035;-62
2022/02/19 00:17:53;;;;;;;41.85;24.27;;;230.80;1868.80;;;;;;5051631;28;20074;-60
2022/02/19 00:20:19;;;;;;;51.70;27.02;;;230.70;1920.00;;;;;;5051924;28;20029;-60
2022/02/19 00:22:44;;;;;;;51.60;28.95;;;230.70;1920.00;;;;;;5051687;28;20094;-60
2022/02/19 00:25:10;;;;;;;50.75;27.17;;;230.40;1945.60;;;;;;5051410;28;20467;-60
2022/02/19 00:27:37;;;;;;;43.90;24.88;;;230.40;1945.60;;;;;;5051777;28;20086;-60
2022/02/19 00:30:05;;;;;;;84.78;49.38;;;205.70;1971.20;;;;;;5051523;28;20112;-60
2022/02/19 00:32:32;;;;;;;42.85;22.58;;;205.70;1971.20;;;;;;5051534;28;20025;-62
2022/02/19 00:34:58;;;;;;;28.00;13.43;;;205.40;2073.60;;;;;;5048206;28;20502;-60
2022/02/19 00:37:24;;;;;;;16.40;9.55;;;205.30;2073.60;;;;;;5041110;28;20017;-61
2022/02/19 00:39:50;;;;;;;16.35;9.45;;;205.30;2048.00;;;;;;5041181;28;20468;-61
2022/02/19 00:42:16;;;;;;;17.45;9.55;;;205.20;2073.60;;;;;;5040081;28;20013;-62
2022/02/19 00:44:41;;;;;;;18.88;9.43;;;205.10;2099.20;;;;;;5040584;28;20475;-60
2022/02/19 00:47:07;;;;;;;15.43;9.55;;;205.00;2124.80;;;;;;5040990;28;20104;-59
2022/02/19 00:49:33;;;;;;;13.95;8.52;;;205.10;2124.80;;;;;;5038999;28;20024;-62
2022/02/19 00:51:59;;;;;;;46.53;27.20;;;205.00;2176.00;;;;;;5041770;28;20020;-59
2022/02/19 00:54:24;;;;;;;37.40;23.02;;;205.10;2124.80;;;;;;5040108;28;20108;-60
2022/02/19 00:56:51;;;;;;;30.08;16.38;;;205.10;2124.80;;;;;;5040164;28;20021;-61
2022/02/19 00:59:17;;;;;;;21.85;12.13;;;205.20;2176.00;;;;;;5042232;28;20025;-61
2022/02/19 01:01:43;;;;;;;19.90;11.95;;;205.10;2201.60;;;;;;5049515;28;20471;-62
2022/02/19 01:04:08;;;;;;;21.58;11.70;;;204.90;2227.20;;;;;;5040669;28;20028;-61
2022/02/19 01:06:34;;;;;;;54.03;37.05;;;204.90;2201.60;;;;;;5041773;28;20053;-61
2022/02/19 01:09:00;;;;;;;26.95;15.27;;;205.10;2150.40;;;;;;5041613;28;20029;-61
2022/02/19 01:11:26;;;;;;;23.25;13.05;;;205.00;2201.60;;;;;;5039645;28;20467;-61
2022/02/19 01:13:52;;;;;;;20.65;11.73;;;205.00;2150.40;;;;;;5040270;28;20356;-62
2022/02/19 01:16:18;;;;;;;15.50;11.43;;;204.90;2176.00;;;;;;5036292;28;20059;-59
2022/02/19 01:18:44;;;;;;;23.90;17.02;;;205.00;2099.20;;;;;;5037875;28;20030;-60
2022/02/19 01:21:10;;;;;;;34.28;23.25;;;205.00;2176.00;;;;;;5039196;28;20365;-62
2022/02/19 01:23:35;;;;;;;21.92;12.05;;;205.10;2176.00;;;;;;5041247;28;20537;-60
2022/02/19 01:26:02;;;;;;;13.02;8.48;;;205.00;2227.20;;;;;;5039673;28;20383;-60
2022/02/19 01:28:30;;;;;;;14.00;8.07;;;205.00;2176.00;;;;;;5039354;28;20029;-62
2022/02/19 01:30:57;;;;;;;40.70;20.95;;;205.00;2150.40;;;;;;5039198;28;20055;-60
2022/02/19 01:33:23;;;;;;;27.38;14.10;;;205.20;2073.60;;;;;;5039730;28;20068;-60
2022/02/19 01:35:48;;;;;;;21.48;10.35;;;205.30;2073.60;;;;;;5040062;28;20117;-61
2022/02/19 01:38:14;;;;;;;19.90;10.70;;;205.50;2048.00;;;;;;5038926;28;20029;-62
2022/02/19 01:40:40;;;;;;;33.13;19.60;;;205.60;2022.40;;;;;;5037411;28;20029;-60
2022/02/19 01:43:06;;;;;;;45.70;23.90;;;205.50;2048.00;;;;;;5039182;28;20479;-60
2022/02/19 01:45:32;;;;;;;59.10;30.98;;;205.50;2048.00;;;;;;5039964;28;20072;-61
2022/02/19 01:47:57;;;;;;;54.58;28.75;;;205.50;2048.00;;;;;;5044152;28;20482;-60
2022/02/19 01:50:23;;;;;;;58.70;27.55;;;205.60;2048.00;;;;;;5038034;28;20437;-60
2022/02/19 01:52:49;;;;;;;39.17;22.05;;;205.70;1996.80;;;;;;5036231;28;20510;-60
2022/02/19 01:55:15;;;;;;;40.42;21.38;;;230.80;1971.20;;;;;;5039659;28;20025;-60
2022/02/19 01:57:42;;;;;;;21.90;10.38;;;230.40;1996.80;;;;;;5032607;28;20025;-61
2022/02/19 02:00:08;;;;;;;24.13;12.07;;;230.80;1843.20;;;;;;5030408;28;20028;-59
2022/02/19 02:02:34;;;;;;;35.30;19.33;;;230.90;1945.60;;;;;;5029908;28;20029;-60
2022/02/19 02:05:00;;;;;;;29.45;15.77;;;230.60;1996.80;;;;;;5029925;28;20524;-61
2022/02/19 02:07:26;;;;;;;19.55;8.77;;;230.50;1971.20;;;;;;5030159;28;20033;-60
2022/02/19 02:09:52;;;;;;;14.32;7.93;;;230.40;1945.60;;;;;;5029937;28;20033;-60
2022/02/19 02:12:18;;;;;;;9.85;5.68;;;230.40;1971.20;;;;;;5029963;28;20057;-60
2022/02/19 02:14:44;;;;;;;17.52;9.75;;;230.40;1971.20;;;;;;5029926;28;20368;-61
2022/02/19 02:17:12;;;;;;;18.83;10.30;;;230.50;1920.00;;;;;;5030243;28;20025;-60
2022/02/19 02:19:38;;;;;;;25.65;15.15;;;230.50;1920.00;;;;;;5029371;28;20055;-61
2022/02/19 02:22:06;;;;;;;14.27;8.60;;;230.40;1971.20;;;;;;5029679;28;20030;-61
2022/02/19 02:24:37;;;;;;;33.65;17.63;;;205.50;2048.00;;;;;;5029809;28;20100;-63
2022/02/19 02:27:07;;;;;;;31.85;16.20;;;205.60;2022.40;;;;;;5029455;28;20043;-61
2022/02/19 02:29:39;;;;;;;20.73;12.60;;;205.50;1996.80;;;;;;5029953;28;20029;-60
2022/02/19 02:32:05;;;;;;;23.33;12.20;;;205.50;2048.00;;;;;;5029765;28;20083;-61
2022/02/19 02:34:31;;;;;;;14.05;6.72;;;205.30;2124.80;;;;;;5029833;28;20025;-61
2022/02/19 02:36:56;;;;;;;37.40;22.38;;;205.10;2150.40;;;;;;5029720;28;20040;-61
2022/02/19 02:39:22;;;;;;;21.83;11.65;;;205.20;2099.20;;;;;;5029612;28;20048;-62
2022/02/19 02:41:48;;;;;;;16.23;8.52;;;205.30;2073.60;;;;;;5029677;28;20030;-62
2022/02/19 02:44:13;;;;;;;9.65;5.55;;;205.20;2124.80;;;;;;5030001;28;20483;-60
2022/02/19 02:46:39;;;;;;;11.32;5.50;;;205.40;2022.40;;;;;;5029687;28;20095;-60
2022/02/19 02:49:05;;;;;;;19.02;9.77;;;205.70;1945.60;;;;;;5029772;28;20026;-60
2022/02/19 02:51:31;;;;;;;14.13;8.00;;;205.60;1996.80;;;;;;5029603;28;20030;-60
2022/02/19 02:53:57;;;;;;;10.68;6.60;;;205.40;2099.20;;;;;;5028660;28;20042;-60
2022/02/19 02:56:23;;;;;;;16.70;8.02;;;205.40;1996.80;;;;;;5029338;28;20037;-60
2022/02/19 02:58:49;;;;;;;28.02;16.95;;;205.70;1945.60;;;;;;5029778;28;20087;-59
2022/02/19 03:01:14;;;;;;;22.17;14.40;;;205.20;2124.80;;;;;;5029832;28;20038;-59
2022/02/19 03:03:40;;;;;;;9.80;4.57;;;205.20;2099.20;;;;;;5029562;28;20109;-61
2022/02/19 03:06:06;;;;;;;11.77;7.10;;;205.40;1971.20;;;;;;5029466;28;20069;-59
2022/02/19 03:08:32;;;;;;;21.33;12.00;;;205.50;1996.80;;;;;;5029330;28;20076;-59
2022/02/19 03:10:57;;;;;;;10.98;5.72;;;205.40;2048.00;;;;;;5029468;28;20033;-59
2022/02/19 03:13:23;;;;;;;10.63;5.82;;;205.50;1996.80;;;;;;5030944;28;20132;-59
2022/02/19 03:15:49;;;;;;;9.20;4.38;;;205.60;1945.60;;;;;;5033095;28;20075;-60
2022/02/19 03:18:17;;;;;;;10.23;5.85;;;205.70;1920.00;;;;;;5033419;28;20036;-60
2022/02/19 03:20:43;;;;;;;10.50;5.07;;;230.40;1945.60;;;;;;5032768;28;20373;-59
2022/02/19 03:23:09;;;;;;;17.25;11.50;;;230.50;1894.40;;;;;;5033085;28;20037;-59
2022/02/19 03:25:35;;;;;;;17.83;10.00;;;230.40;1920.00;;;;;;5032784;28;20037;-60
2022/02/19 03:28:00;;;;;;;28.65;14.70;;;205.70;1971.20;;;;;;5032683;28;20033;-60
2022/02/19 03:30:26;;;;;;;42.33;21.98;;;205.70;1971.20;;;;;;5033040;28;20034;-59
2022/02/19 03:32:54;;;;;;;33.92;15.35;;;205.70;1971.20;;;;;;5032782;28;20051;-58
2022/02/19 03:35:20;;;;;;;13.77;8.52;;;205.60;1971.20;;;;;;5032714;28;20443;-61
2022/02/19 03:37:45;;;;;;;23.20;13.18;;;205.60;1971.20;;;;;;5032832;28;20388;-59
2022/02/19 03:40:11;;;;;;;13.40;8.00;;;205.60;1945.60;;;;;;5032379;28;20022;-60
2022/02/19 03:42:39;;;;;;;11.48;5.18;;;205.70;1920.00;;;;;;5032536;28;20041;-59
2022/02/19 03:45:08;;;;;;;10.93;6.60;;;205.70;1920.00;;;;;;5032513;28;20456;-60
2022/02/19 03:47:35;;;;;;;17.05;8.13;;;230.50;1868.80;;;;;;5032331;28;20112;-60
2022/02/19 03:50:05;;;;;;;15.32;8.80;;;230.60;1843.20;;;;;;5032231;28;20531;-60
2022/02/19 03:52:32;;;;;;;21.58;9.85;;;230.60;1868.80;;;;;;5032248;28;20125;-59
2022/02/19 03:54:57;;;;;;;49.47;22.40;;;230.50;1945.60;;;;;;5032372;28;20021;-60
2022/02/19 03:57:23;;;;;;;63.25;31.42;;;205.70;1971.20;;;;;;5031953;28;20025;-61
2022/02/19 03:59:49;;;;;;;36.13;19.20;;;205.40;2022.40;;;;;;5032444;28;20048;-61
2022/02/19 04:02:15;;;;;;;16.60;8.95;;;205.50;1996.80;;;;;;5032446;28;20026;-60
2022/02/19 04:04:43;;;;;;;12.70;6.40;;;205.40;2022.40;;;;;;5031891;28;20025;-60
2022/02/19 04:07:09;;;;;;;22.35;20.02;;;205.40;1996.80;;;;;;5031991;28;20117;-60
2022/02/19 04:09:35;;;;;;;11.68;6.50;;;205.40;1971.20;;;;;;5031928;28;20472;-60
2022/02/19 04:12:00;;;;;;;16.20;12.57;;;205.60;1945.60;;;;;;5031549;28;20830;-60
2022/02/19 04:14:26;;;;;;;23.65;12.45;;;205.70;1920.00;;;;;;5031916;28;20104;-59
2022/02/19 04:16:52;;;;;;;22.60;8.65;;;205.70;1920.00;;;;;;5031696;28;20048;-61
2022/02/19 04:19:18;;;;;;;23.42;10.10;;;230.50;1894.40;;;;;;5031985;28;20021;-60
2022/02/19 04:21:44;;;;;;;19.35;10.88;;;230.50;1894.40;;;;;;5031913;28;20083;-60
2022/02/19 04:24:09;;;;;;;10.98;5.60;;;230.40;1945.60;;;;;;5031792;28;20018;-59
2022/02/19 04:26:35;;;;;;;10.55;5.25;;;205.20;2073.60;;;;;;5031551;28;20077;-60
2022/02/19 04:29:01;;;;;;;10.93;5.20;;;205.10;2099.20;;;;;;5031683;28;20028;-59
2022/02/19 04:31:27;;;;;;;13.70;10.68;;;204.80;2150.40;;;;;;5031685;28;20525;-59
2022/02/19 04:33:52;;;;;;;11.48;7.50;;;180.10;2176.00;;;;;;5031360;28;20036;-60
2022/02/19 04:36:18;;;;;;;13.40;7.22;;;179.80;2252.80;;;;;;5031467;28;20039;-59
2022/02/19 04:38:44;;;;;;;22.65;20.40;;;179.80;2227.20;;;;;;5031481;28;20028;-58
2022/02/19 04:41:10;;;;;;;15.95;11.93;;;179.90;2252.80;;;;;;5031167;28;20464;-60
2022/02/19 04:43:36;;;;;;;22.48;13.57;;;179.80;2252.80;;;;;;5031654;28;20029;-59
2022/02/19 04:46:01;;;;;;;16.42;10.65;;;179.90;2252.80;;;;;;5031807;28;20038;-60
2022/02/19 04:48:27;;;;;;;18.52;9.98;;;180.00;2227.20;;;;;;5031510;28;20045;-59
2022/02/19 04:50:53;;;;;;;18.65;10.27;;;180.10;2201.60;;;;;;5031154;28;20080;-59
2022/02/19 04:53:18;;;;;;;10.23;5.32;;;204.90;2150.40;;;;;;5031501;28;20068;-59
2022/02/19 04:55:44;;;;;;;21.52;12.48;;;205.10;2073.60;;;;;;5031320;28;20503;-60
2022/02/19 04:58:10;;;;;;;13.02;9.10;;;205.10;2099.20;;;;;;5031200;28;20464;-59
2022/02/19 05:00:36;;;;;;;12.63;11.38;;;205.00;2176.00;;;;;;5031298;28;20025;-59
2022/02/19 05:03:02;;;;;;;9.02;5.03;;;204.90;2201.60;;;;;;5031135;28;20067;-59
2022/02/19 05:05:28;;;;;;;7.25;4.90;;;204.80;2201.60;;;;;;5030860;28;20045;-59
2022/02/19 05:07:53;;;;;;;12.07;5.60;;;205.00;2176.00;;;;;;5030999;28;20093;-59
2022/02/19 05:10:19;;;;;;;10.15;6.60;;;204.80;2252.80;;;;;;5031246;28;20025;-60
2022/02/19 05:12:45;;;;;;;9.20;4.75;;;180.00;2252.80;;;;;;5031133;28;20108;-61
2022/02/19 05:15:13;;;;;;;8.55;4.47;;;179.90;2252.80;;;;;;5030943;28;20017;-60
2022/02/19 05:17:46;;;;;;;9.73;5.68;;;179.90;2252.80;;;;;;5030974;28;20029;-59
2022/02/19 05:20:12;;;;;;;12.65;6.65;;;179.70;2252.80;;;;;;5030854;28;20029;-59
2022/02/19 05:22:39;;;;;;;10.70;6.53;;;179.50;2252.80;;;;;;5031008;28;20037;-61
2022/02/19 05:25:05;;;;;;;12.27;7.53;;;179.30;2252.80;;;;;;5030749;28;20059;-60
2022/02/19 05:27:31;;;;;;;13.27;7.45;;;179.40;2252.80;;;;;;5030343;28;20037;-60
2022/02/19 05:29:56;;;;;;;8.15;5.03;;;179.40;2252.80;;;;;;5030753;28;20021;-59
2022/02/19 05:32:22;;;;;;;19.60;11.35;;;179.30;2252.80;;;;;;5030623;28;20021;-61
2022/02/19 05:34:50;;;;;;;10.55;5.22;;;179.40;2252.80;;;;;;5030608;28;20022;-59
2022/02/19 05:37:16;;;;;;;19.83;12.18;;;179.60;2252.80;;;;;;5030295;28;20028;-59
2022/02/19 05:39:42;;;;;;;10.60;5.57;;;179.40;2252.80;;;;;;5030430;28;20025;-59
2022/02/19 05:42:07;;;;;;;11.70;7.32;;;179.50;2252.80;;;;;;5030321;28;20400;-59
2022/02/19 05:44:33;;;;;;;13.57;7.47;;;179.70;2252.80;;;;;;5030150;28;20081;-58
2022/02/19 05:46:59;;;;;;;11.32;5.15;;;180.00;2252.80;;;;;;5030467;28;20119;-59
2022/02/19 05:49:25;;;;;;;7.13;5.38;;;179.90;2252.80;;;;;;5030292;28;20032;-59
2022/02/19 05:51:50;;;;;;;8.38;4.57;;;205.00;2252.80;;;;;;5029240;28;20041;-58
2022/02/19 05:54:16;;;;;;;13.80;6.82;;;205.10;2252.80;;;;;;5030705;28;20044;-59
2022/02/19 05:56:42;;;;;;;6.97;3.90;;;205.20;2252.80;;;;;;5030082;28;20080;-59
2022/02/19 05:59:08;;;;;;;9.82;4.18;;;205.30;2252.80;;;;;;5029211;28;20055;-61
2022/02/19 06:01:33;;;;;;;16.70;6.82;;;205.40;2252.80;;;;;;5030265;28;20041;-59
2022/02/19 06:03:59;;;;;;;12.48;6.60;;;205.30;2252.80;;;;;;5030127;28;20368;-59
2022/02/19 06:06:25;;;;;;;7.72;3.90;;;205.50;2252.80;;;;;;5029702;28;20152;-60
2022/02/19 06:08:51;;;;;;;8.57;5.35;;;205.60;2252.80;;;;;;5029987;28;20100;-59
2022/02/19 06:11:16;;;;;;;15.70;8.30;;;205.70;2252.80;;;;;;5030187;28;20116;-60
2022/02/19 06:13:42;;;;;;;12.18;5.45;;;205.60;2252.80;;;;;;5029912;28;20030;-58
2022/02/19 06:16:08;;;;;;;12.43;6.53;;;230.40;2252.80;;;;;;5030257;28;20033;-60
2022/02/19 06:18:34;;;;;;;21.38;9.45;;;230.40;2252.80;;;;;;5029796;28;20030;-61
2022/02/19 06:20:59;;;;;;;14.48;7.22;;;230.70;2201.60;;;;;;5030492;28;20112;-62
2022/02/19 06:23:25;;;;;;;16.05;9.40;;;230.80;2176.00;;;;;;5029924;28;20349;-62
2022/02/19 06:25:51;;;;;;;23.70;13.50;;;231.10;2099.20;;;;;;5029790;28;20037;-62
2022/02/19 06:28:17;;;;;;;44.15;22.83;;;231.30;2048.00;;;;;;5029975;28;20029;-61
2022/02/19 06:30:42;;;;;;;14.52;6.70;;;256.20;2022.40;;;;;;5029741;28;20029;-62
2022/02/19 06:33:08;;;;;;;13.93;7.35;;;256.30;1945.60;;;;;;5029951;28;20387;-59
2022/02/19 06:35:34;;;;;;;20.42;10.75;;;256.30;1971.20;;;;;;5029553;28;20049;-62
2022/02/19 06:38:00;;;;;;;38.63;18.20;;;256.40;1996.80;;;;;;5029683;28;20026;-63
2022/02/19 06:40:26;;;;;;;81.72;39.90;;;256.50;2022.40;;;;;;5029912;28;20040;-62
2022/02/19 06:42:52;;;;;;;131.43;85.20;;;256.50;2022.40;;;;;;5029542;28;20022;-62
2022/02/19 06:45:17;;;;;;;42.08;25.13;;;256.50;2048.00;;;;;;5029713;28;20048;-59
2022/02/19 06:47:43;;;;;;;12.48;7.32;;;256.50;2022.40;;;;;;5030054;28;20087;-59
2022/02/19 06:50:10;;;;;;;51.55;34.75;;;256.80;1945.60;;;;;;5033624;28;20032;-59
2022/02/19 06:52:36;;;;;;;40.38;25.70;;;256.30;2073.60;;;;;;5033637;28;20103;-59
2022/02/19 06:55:03;;;;;;;20.20;14.55;;;256.20;2073.60;;;;;;5033561;28;20060;-61
2022/02/19 06:57:29;;;;;;;17.10;10.00;;;256.10;2048.00;;;;;;5043218;28;20037;-60
2022/02/19 06:59:55;;;;;;;17.40;10.35;;;256.30;2048.00;;;;;;5053124;28;20375;-59
2022/02/19 07:02:20;;;;;;;14.95;9.57;;;256.60;1996.80;;;;;;5053326;28;20096;-60
2022/02/19 07:04:46;;;;;;;29.30;20.13;;;281.60;1920.00;;;;;;5053347;28;20114;-61
2022/02/19 07:07:13;;;;;;;34.25;24.30;;;281.80;1868.80;;;;;;5052847;28;20048;-62
2022/02/19 07:09:39;;;;;;;42.10;29.58;;;282.10;1868.80;;;;;;5053274;28;20028;-61
2022/02/19 07:12:05;;;;;;;39.25;24.13;;;282.40;1843.20;;;;;;5052872;28;20033;-61
2022/02/19 07:14:31;;;;;;;21.60;15.63;;;282.50;1843.20;;;;;;5052702;28;20539;-61
2022/02/19 07:17:07;;;;;;;17.00;10.77;;;282.50;1920.00;;;;;;5052989;28;20025;-61
2022/02/19 07:19:36;;;;;;;14.57;8.32;;;282.50;1996.80;;;;;;5052950;28;20403;-61
2022/02/19 07:22:04;;;;;;;13.25;10.70;;;307.30;1971.20;;;;;;5052777;28;20021;-62
2022/02/19 07:24:30;;;;;;;14.77;8.43;;;307.50;1945.60;;;;;;5053051;28;20017;-61
2022/02/19 07:26:56;;;;;;;9.18;5.65;;;307.60;1945.60;;;;;;5052649;28;20487;-61
2022/02/19 07:29:23;;;;;;;11.68;6.40;;;307.80;1920.00;;;;;;5052534;28;20049;-61
2022/02/19 07:31:49;;;;;;;10.15;6.40;;;308.00;1868.80;;;;;;5052744;28;20104;-59
2022/02/19 07:34:15;;;;;;;11.48;6.00;;;308.10;1843.20;;;;;;5052919;28;20170;-61
2022/02/19 07:36:41;;;;;;;12.23;5.88;;;308.10;1792.00;;;;;;5052332;28;20037;-62
2022/02/19 07:39:08;;;;;;;9.15;4.90;;;332.80;1766.40;;;;;;5052601;28;20036;-61
2022/02/19 07:41:34;;;;;;;13.30;5.95;;;332.90;1689.60;;;;;;5052450;28;20025;-62
2022/02/19 07:44:01;;;;;;;9.15;6.88;;;333.50;1740.80;;;;;;5052058;28;20036;-62
2022/02/19 07:46:26;;;;;;;8.93;5.47;;;333.50;1740.80;;;;;;5052353;28;20501;-62
2022/02/19 07:48:52;;;;;;;8.48;5.45;;;333.70;1638.40;;;;;;5052251;28;20025;-62
2022/02/19 07:59:30;;;;;;;8.88;4.53;;;384.10;1484.80;;;;;;5051830;28;20074;-61
2022/02/19 08:01:56;;;;;;;12.73;7.10;;;384.00;1536.00;;;;;;5052454;28;20032;-63
2022/02/19 08:04:21;;;;;;;10.65;5.70;;;359.30;1587.20;;;;;;5052033;28;20383;-61
2022/02/19 08:06:47;;;;;;;17.88;10.93;;;384.00;1587.20;;;;;;5051758;28;20057;-59
2022/02/19 08:09:13;;;;;;;7.68;4.88;;;384.00;1689.60;;;;;;5051964;28;20075;-60
2022/02/19 08:11:39;;;;;;;8.18;5.25;;;384.60;1510.40;;;;;;5052112;28;20028;-62
2022/02/19 08:14:06;;;;;;;8.23;4.53;;;409.80;1433.60;;;;;;5051826;28;20020;-62
2022/02/19 08:16:32;;;;;;;8.35;4.78;;;410.10;1433.60;;;;;;5051805;28;20031;-63
2022/02/19 08:18:58;;;;;;;14.25;11.63;;;435.30;1382.40;;;;;;5052044;28;20021;-61
2022/02/19 08:21:24;;;;;;;8.00;5.00;;;435.90;1484.80;;;;;;5051671;28;20099;-62
2022/02/19 08:23:51;;;;;;;8.65;5.82;;;461.10;1331.20;;;;;;5051529;28;20071;-62
2022/02/19 08:26:23;;;;;;;32.67;29.23;;;461.20;1305.60;;;;;;5040040;28;20499;-61
2022/02/19 08:28:49;;;;;;;15.60;11.40;;;461.70;1254.40;;;;;;5031437;28;20490;-61
2022/02/19 08:31:15;;;;;;;35.20;31.27;;;487.00;1305.60;;;;;;5031797;28;20026;-61
2022/02/19 08:33:40;;;;;;;109.03;95.50;;;512.30;1254.40;;;;;;5031496;28;20029;-61
2022/02/19 08:36:06;;;;;;;433.17;365.17;;;512.40;1177.60;;;;;;5031332;28;20099;-63
2022/02/19 08:38:32;;;;;;;199.82;155.77;;;512.70;1177.60;;;;;;5031388;28;20112;-61
2022/02/19 08:40:58;;;;;;;247.15;170.40;;;512.80;1177.60;;;;;;5031495;28;20083;-58
2022/02/19 08:43:24;;;;;;;123.03;108.82;;;538.30;1177.60;;;;;;5031235;28;20037;-61
2022/02/19 08:45:49;;;;;;;27.90;18.88;;;563.30;1203.20;;;;;;5031300;28;20026;-61
2022/02/19 08:48:15;;;;;;;27.35;16.52;;;564.10;1177.60;;;;;;5031300;28;20408;-63
2022/02/19 08:50:42;;;;;;;11.88;6.88;;;563.80;1203.20;;;;;;5031074;28;20096;-60
2022/02/19 08:53:12;;;;;;;6.07;4.78;;;589.20;1126.40;;;;;;5031370;28;20497;-60
2022/02/19 08:55:40;;;;;;;6.35;4.25;;;614.80;1049.60;;;;;;5031274;28;20041;-64
2022/02/19 08:58:06;;;;;;;59.35;11.18;;;589.00;1049.60;;;;;;5031188;28;20034;-61
2022/02/19 09:00:32;;;;;;;17.98;7.65;;;563.80;1100.80;;;;;;5030871;28;20100;-61
2022/02/19 09:02:58;;;;;;;9.88;4.30;;;563.30;1126.40;;;;;;5031177;28;20125;-64
2022/02/19 09:05:23;;;;;;;5.82;3.85;;;538.20;1126.40;;;;;;5030606;28;20045;-65
2022/02/19 09:07:49;;;;;;;7.88;4.70;;;537.90;1126.40;;;;;;5031084;28;20095;-59
2022/02/19 09:10:17;;;;;;;10.32;8.52;;;537.60;1177.60;;;;;;5030556;28;20411;-62
2022/02/19 09:12:47;;;;;;;7.88;4.97;;;538.20;1152.00;;;;;;5030582;28;20022;-60
2022/02/19 09:15:22;;;;;;;11.23;6.03;;;538.50;1152.00;;;;;;5030657;28;20024;-62
2022/02/19 09:17:48;;;;;;;8.00;6.22;;;538.20;1152.00;;;;;;5030895;28;20032;-63
2022/02/19 09:20:15;;;;;;;14.15;10.52;;;563.70;1152.00;;;;;;5030756;28;20030;-67
2022/02/19 09:22:41;;;;;;;9.70;6.13;;;564.10;1126.40;;;;;;5030372;28;20103;-59
2022/02/19 09:25:09;;;;;;;7.40;5.13;;;564.10;1126.40;;;;;;5030773;28;20025;-59
2022/02/19 09:27:35;;;;;;;10.52;5.88;;;564.10;1075.20;;;;;;5030351;28;20044;-69
2022/02/19 09:30:02;;;;;;;10.57;8.00;;;588.80;1100.80;;;;;;5030438;28;20036;-59
2022/02/19 09:32:28;;;;;;;15.70;14.02;;;564.00;1126.40;;;;;;5030609;28;20087;-59
2022/02/19 09:34:54;;;;;;;14.10;9.27;;;563.90;1100.80;;;;;;5030347;28;20030;-59
2022/02/19 09:37:20;;;;;;;11.52;8.43;;;563.40;1100.80;;;;;;5030242;28;20472;-60
2022/02/19 09:39:46;;;;;;;12.02;9.25;;;538.50;1126.40;;;;;;5030688;28;20017;-68
2022/02/19 09:42:12;;;;;;;12.35;8.32;;;538.20;1126.40;;;;;;5030402;28;20037;-58
2022/02/19 09:44:38;;;;;;;11.35;7.10;;;537.90;1126.40;;;;;;5030564;28;20391;-66
2022/02/19 09:47:06;;;;;;;20.90;14.93;;;537.90;1152.00;;;;;;5030261;28;20029;-58
2022/02/19 09:49:33;;;;;;;31.55;22.63;;;537.70;1177.60;;;;;;5030501;28;20031;-59
2022/02/19 09:51:59;;;;;;;17.17;12.25;;;537.80;1203.20;;;;;;5030103;28;20031;-59
2022/02/19 09:54:26;;;;;;;11.55;9.38;;;537.70;1177.60;;;;;;5027539;28;20104;-61
2022/02/19 09:56:52;;;;;;;9.48;8.30;;;512.90;1152.00;;;;;;5031191;28;20035;-65
2022/02/19 09:59:18;;;;;;;11.32;9.85;;;537.80;1203.20;;;;;;5047482;28;20397;-60
2022/02/19 10:01:59;;;;;;;16.92;12.88;;;537.80;1177.60;;;;;;5047380;28;20033;-58
2022/02/19 10:04:25;;;;;;;12.15;8.80;;;512.90;1152.00;;;;;;5047916;28;20032;-59
2022/02/19 10:06:52;;;;;;;11.98;8.52;;;512.80;1203.20;;;;;;5047131;28;20494;-64
2022/02/19 10:09:19;;;;;;;10.38;7.18;;;512.80;1203.20;;;;;;5048175;28;20032;-59
2022/02/19 10:11:46;;;;;;;13.43;10.13;;;512.50;1228.80;;;;;;5048117;28;20037;-62
2022/02/19 10:14:25;;;;;;;18.92;13.15;;;512.60;1228.80;;;;;;5047752;28;20056;-59
2022/02/19 10:17:11;;;;;;;37.90;26.73;;;512.70;1203.20;;;;;;5047863;28;20053;-60
2022/02/19 10:19:47;;;;;;;25.05;19.73;;;512.50;1203.20;;;;;;5047689;28;20021;-59
2022/02/19 10:22:14;;;;;;;31.80;23.50;;;487.30;1203.20;;;;;;5049110;28;20021;-59
2022/02/19 10:24:46;;;;;;;19.20;13.27;;;512.00;1203.20;;;;;;5051975;28;20067;-59
2022/02/19 10:27:11;;;;;;;21.20;14.98;;;487.10;1228.80;;;;;;5048716;28;20038;-59
2022/02/19 10:29:54;;;;;;;25.75;15.98;;;487.10;1228.80;;;;;;5037953;28;20040;-60
2022/02/19 10:32:22;;;;;;;17.33;9.85;;;487.00;1228.80;;;;;;5031907;28;20034;-61
2022/02/19 10:34:59;;;;;;;20.88;14.60;;;486.90;1203.20;;;;;;5033708;28;20033;-59
2022/02/19 10:37:28;;;;;;;15.00;10.65;;;486.80;1228.80;;;;;;5033496;28;20422;-58
2022/02/19 10:39:56;;;;;;;15.80;11.10;;;486.70;1228.80;;;;;;5032657;28;20021;-58
2022/02/19 10:42:32;;;;;;;16.27;10.70;;;486.60;1254.40;;;;;;5031226;28;20026;-60
2022/02/19 10:44:58;;;;;;;16.55;12.35;;;461.70;1254.40;;;;;;5033002;28;20025;-59
2022/02/19 10:47:26;;;;;;;14.88;10.75;;;461.70;1254.40;;;;;;5032873;28;20483;-59
2022/02/19 10:50:11;;;;;;;19.40;13.50;;;461.50;1254.40;;;;;;5033179;28;20366;-59
2022/02/19 10:52:40;;;;;;;17.60;14.00;;;461.70;1254.40;;;;;;5033104;28;20025;-59
2022/02/19 10:55:08;;;;;;;16.90;11.63;;;461.70;1254.40;;;;;;5033206;28;20029;-59
2022/02/19 10:57:45;;;;;;;16.20;10.98;;;486.50;1228.80;;;;;;5031593;28;20427;-60
2022/02/19 11:00:17;;;;;;;12.85;7.93;;;461.70;1228.80;;;;;;5032948;28;20524;-59
2022/02/19 11:02:46;;;;;;;14.40;9.68;;;486.40;1203.20;;;;;;5032939;28;20018;-58
2022/02/19 11:05:13;;;;;;;14.40;11.40;;;486.70;1203.20;;;;;;5032584;28;20409;-59
2022/02/19 11:07:41;;;;;;;16.63;10.73;;;486.70;1203.20;;;;;;5032921;28;20041;-60
2022/02/19 11:10:10;;;;;;;20.35;12.82;;;486.50;1203.20;;;;;;5032811;28;20033;-60
2022/02/19 11:12:36;;;;;;;14.82;10.82;;;486.60;1228.80;;;;;;5032787;28;20488;-62
2022/02/19 11:15:03;;;;;;;8.07;5.97;;;486.60;1203.20;;;;;;5032573;28;20067;-59
2022/02/19 11:17:29;;;;;;;19.60;12.30;;;486.50;1177.60;;;;;;5032221;28;20113;-60
2022/02/19 11:20:00;;;;;;;12.00;8.85;;;486.70;1177.60;;;;;;5032054;28;20034;-65
2022/02/19 11:22:29;;;;;;;12.95;7.85;;;486.70;1203.20;;;;;;5032028;28;20103;-61
2022/02/19 11:24:56;;;;;;;13.02;9.25;;;486.40;1203.20;;;;;;5032262;28;20034;-61
2022/02/19 11:27:23;;;;;;;17.98;10.07;;;486.70;1177.60;;;;;;5032517;28;20033;-60
2022/02/19 11:29:51;;;;;;;12.95;8.23;;;486.90;1177.60;;;;;;5032171;28;20026;-62
2022/02/19 11:32:17;;;;;;;10.02;6.97;;;486.70;1177.60;;;;;;5032088;28;20028;-58
2022/02/19 11:34:53;;;;;;;11.00;7.00;;;486.60;1177.60;;;;;;5030867;28;20483;-59
2022/02/19 11:37:22;;;;;;;43.95;23.98;;;487.00;1177.60;;;;;;5031963;28;20103;-58
2022/02/19 11:40:11;;;;;;;25.33;14.07;;;487.10;1177.60;;;;;;5032363;28;20028;-59
2022/02/19 11:42:43;;;;;;;15.55;9.75;;;487.20;1228.80;;;;;;5032715;28;20026;-61
2022/02/19 11:45:26;;;;;;;13.32;9.07;;;487.20;1203.20;;;;;;5031852;28;20029;-60
2022/02/19 11:48:19;;;;;;;9.70;7.65;;;487.30;1177.60;;;;;;5031407;28;20111;-62
2022/02/19 11:50:44;;;;;;;26.00;11.10;;;487.00;1152.00;;;;;;5031155;28;20025;-59
2022/02/19 11:53:13;;;;;;;17.70;12.82;;;486.90;1177.60;;;;;;5031628;28;20353;-60
2022/02/19 11:55:40;;;;;;;18.70;10.23;;;486.90;1177.60;;;;;;5032332;28;20029;-59
2022/02/19 11:58:09;;;;;;;16.92;11.93;;;486.80;1152.00;;;;;;5032051;28;20455;-63
2022/02/19 12:00:57;;;;;;;21.42;11.73;;;487.00;1177.60;;;;;;5031138;28;20014;-60
2022/02/19 12:03:36;;;;;;;17.45;10.60;;;486.70;1152.00;;;;;;5031050;28;20029;-59
2022/02/19 12:06:15;;;;;;;75.70;44.33;;;486.40;1177.60;;;;;;5030694;28;20053;-60
2022/02/19 12:08:47;;;;;;;14.95;10.25;;;486.60;1203.20;;;;;;5031146;28;20021;-59
2022/02/19 12:11:17;;;;;;;10.23;6.20;;;486.40;1177.60;;;;;;5033920;28;20498;-58